KVIH/VIH METAR and TAF weather

Enter ICAO airport designator
Station Type Date Time Source
KVIH METAR 2021/05/14 04:53 UTC NOAA

KVIH 140453Z AUTO 12007KT 10SM CLR 09/02 A3032 RMK AO2 SLP264 T00940022


Station Type Date Time Source
KVIH Decoded METAR 2021/05/14 04:53 UTC NOAA

ROLLA/VICHY ROLLA NATIONAL, MO, United States (KVIH) 38-08N 91-46W 333M
May 14, 2021 - 12:53 AM EDT / 2021.05.14 0453 UTC
Wind: from the ESE (120 degrees) at 8 MPH (7 KT):0
Visibility: 10 mile(s):0
Sky conditions: clear
Temperature: 48.9 F (9.4 C)
Dew Point: 36.0 F (2.2 C)
Relative Humidity: 60%
Pressure (altimeter): 30.32 in. Hg (1026 hPa)
ob: KVIH 140453Z AUTO 12007KT 10SM CLR 09/02 A3032 RMK AO2 SLP264 T00940022
cycle: 5

Station Type Date Time Source
KVIH TAF UTC NOAA

Error!

Example: see airport list